This is the latest recevied weather packets stored in our database for station/object N4OGP-WX. If no packets are shown the sender has not sent any weather packets the latest 10 day(s).
| Time | Temp. | Humidity | Pressure | Rain* | Wind** | Luminosity | Snow |
|---|---|---|---|---|---|---|---|
| 1777659831 | 19.44° C | 90% | 1009.5 hPa | 0 mm | - | - | - |
| 1777659771 | 19.44° C | 90% | 1009.5 hPa | 0 mm | - | - | - |
| 1777659711 | 23.89° C | 42% | 1020.4 hPa | 0 mm | - | - | - |
| 1777659651 | 23.89° C | 42% | 1020.4 hPa | 0 mm | - | - | - |
| 1777659591 | 19.44° C | 90% | 1009.6 hPa | 0 mm | - | - | - |
| 1777659501 | 23.89° C | 42% | 1020.4 hPa | 0 mm | - | - | - |
| 1777659441 | 19.44° C | 90% | 1009.7 hPa | 0 mm | - | - | - |
| 1777659381 | 23.89° C | 42% | 1020.4 hPa | 0 mm | - | - | - |
| 1777659321 | 19.44° C | 90% | 1009.8 hPa | 0 mm | - | - | - |
| 1777659261 | 23.89° C | 42% | 1020.4 hPa | 0 mm | - | - | - |
| 1777659201 | 23.89° C | 42% | 1020.4 hPa | 0 mm | - | - | - |
| 1777659141 | 19.44° C | 90% | 1009.8 hPa | 0 mm | - | - | - |
| 1777659081 | 19.44° C | 90% | 1009.8 hPa | 0 mm | - | - | - |
| 1777659021 | 23.89° C | 42% | 1020.4 hPa | 0 mm | - | - | - |
| 1777658931 | 23.89° C | 42% | 1020.4 hPa | 0 mm | - | - | - |
| 1777658841 | 19.44° C | 90% | 1009.9 hPa | 0 mm | - | - | - |
| 1777658781 | 23.89° C | 42% | 1020.4 hPa | 0 mm | - | - | - |
| 1777658721 | 23.89° C | 42% | 1020.4 hPa | 0 mm | - | - | - |
| 1777658661 | 19.44° C | 90% | 1009.8 hPa | 0 mm | - | - | - |
| 1777658601 | 19.44° C | 89% | 1009.8 hPa | 0 mm | - | - | - |
| 1777658541 | 19.44° C | 89% | 1009.9 hPa | 0 mm | - | - | - |
| 1777658481 | 23.89° C | 42% | 1020.4 hPa | 0 mm | - | - | - |
| 1777658391 | 19.44° C | 88% | 1009.8 hPa | 0 mm | - | - | - |
| 1777658331 | 23.89° C | 42% | 1020.4 hPa | 0 mm | - | - | - |
| 1777658271 | 19.44° C | 88% | 1009.7 hPa | 0 mm | - | - | - |
* Rain latest hour (hover to see other rain measurements)
** Current wind speed in m/s (hover to see current wind gust speed)